sensor_id;sensor_type;location;lat;lon;timestamp;P1;durP1;ratioP1;P2;durP2;ratioP2
22314;SDS011;11325;55.686;37.566;2023-12-20T00:02:21;1.67;;;1.57;;
22314;SDS011;11325;55.686;37.566;2023-12-20T00:04:50;2.05;;;1.65;;
22314;SDS011;11325;55.686;37.566;2023-12-20T00:07:19;1.67;;;1.40;;
22314;SDS011;11325;55.686;37.566;2023-12-20T00:09:47;2.20;;;1.70;;
22314;SDS011;11325;55.686;37.566;2023-12-20T00:12:16;4.47;;;1.60;;
22314;SDS011;11325;55.686;37.566;2023-12-20T00:14:45;3.70;;;1.35;;
22314;SDS011;11325;55.686;37.566;2023-12-20T00:17:13;1.75;;;1.32;;
22314;SDS011;11325;55.686;37.566;2023-12-20T00:19:42;1.47;;;1.37;;
22314;SDS011;11325;55.686;37.566;2023-12-20T00:22:11;3.47;;;1.30;;
22314;SDS011;11325;55.686;37.566;2023-12-20T00:24:39;1.52;;;1.42;;
22314;SDS011;11325;55.686;37.566;2023-12-20T00:27:08;3.75;;;1.27;;
22314;SDS011;11325;55.686;37.566;2023-12-20T00:29:36;2.52;;;1.50;;
22314;SDS011;11325;55.686;37.566;2023-12-20T00:32:05;2.83;;;1.50;;
22314;SDS011;11325;55.686;37.566;2023-12-20T00:34:34;1.90;;;1.70;;
22314;SDS011;11325;55.686;37.566;2023-12-20T00:37:02;2.22;;;1.52;;
22314;SDS011;11325;55.686;37.566;2023-12-20T00:39:31;2.58;;;1.80;;
22314;SDS011;11325;55.686;37.566;2023-12-20T00:42:00;2.05;;;1.85;;
22314;SDS011;11325;55.686;37.566;2023-12-20T00:44:29;2.22;;;1.82;;
22314;SDS011;11325;55.686;37.566;2023-12-20T00:46:58;1.95;;;1.57;;
22314;SDS011;11325;55.686;37.566;2023-12-20T00:49:26;3.12;;;1.52;;
22314;SDS011;11325;55.686;37.566;2023-12-20T00:51:55;1.70;;;1.60;;
22314;SDS011;11325;55.686;37.566;2023-12-20T00:54:24;2.17;;;1.70;;
22314;SDS011;11325;55.686;37.566;2023-12-20T00:56:53;2.40;;;1.62;;
22314;SDS011;11325;55.686;37.566;2023-12-20T00:59:21;2.70;;;1.50;;
22314;SDS011;11325;55.686;37.566;2023-12-20T01:01:50;3.33;;;1.90;;
22314;SDS011;11325;55.686;37.566;2023-12-20T01:04:19;2.83;;;1.85;;
22314;SDS011;11325;55.686;37.566;2023-12-20T01:06:47;4.08;;;2.17;;
22314;SDS011;11325;55.686;37.566;2023-12-20T01:09:16;3.65;;;1.98;;
22314;SDS011;11325;55.686;37.566;2023-12-20T01:11:46;2.45;;;1.75;;
22314;SDS011;11325;55.686;37.566;2023-12-20T01:14:14;2.02;;;1.82;;
22314;SDS011;11325;55.686;37.566;2023-12-20T01:16:43;1.92;;;1.55;;
22314;SDS011;11325;55.686;37.566;2023-12-20T01:19:12;2.35;;;2.10;;
22314;SDS011;11325;55.686;37.566;2023-12-20T01:21:41;2.83;;;1.67;;
22314;SDS011;11325;55.686;37.566;2023-12-20T01:24:09;2.02;;;1.77;;
22314;SDS011;11325;55.686;37.566;2023-12-20T01:26:38;2.40;;;1.45;;
22314;SDS011;11325;55.686;37.566;2023-12-20T01:29:07;4.40;;;1.92;;
22314;SDS011;11325;55.686;37.566;2023-12-20T01:31:36;5.40;;;1.50;;
22314;SDS011;11325;55.686;37.566;2023-12-20T01:34:04;3.12;;;1.07;;
22314;SDS011;11325;55.686;37.566;2023-12-20T01:36:33;1.57;;;1.45;;
22314;SDS011;11325;55.686;37.566;2023-12-20T01:39:02;3.67;;;1.55;;
22314;SDS011;11325;55.686;37.566;2023-12-20T01:41:30;3.02;;;1.62;;
22314;SDS011;11325;55.686;37.566;2023-12-20T01:43:59;1.20;;;1.10;;
22314;SDS011;11325;55.686;37.566;2023-12-20T01:46:27;4.62;;;1.37;;
22314;SDS011;11325;55.686;37.566;2023-12-20T01:48:56;3.55;;;1.30;;
22314;SDS011;11325;55.686;37.566;2023-12-20T01:51:25;2.85;;;1.30;;
22314;SDS011;11325;55.686;37.566;2023-12-20T01:53:55;1.45;;;1.35;;
22314;SDS011;11325;55.686;37.566;2023-12-20T01:56:25;6.67;;;1.30;;
22314;SDS011;11325;55.686;37.566;2023-12-20T01:58:55;2.35;;;1.20;;
22314;SDS011;11325;55.686;37.566;2023-12-20T02:01:24;4.00;;;1.35;;
22314;SDS011;11325;55.686;37.566;2023-12-20T02:03:53;2.62;;;1.32;;
22314;SDS011;11325;55.686;37.566;2023-12-20T02:06:22;1.67;;;1.22;;
22314;SDS011;11325;55.686;37.566;2023-12-20T02:08:51;0.80;;;0.80;;
22314;SDS011;11325;55.686;37.566;2023-12-20T02:11:20;3.60;;;1.10;;
22314;SDS011;11325;55.686;37.566;2023-12-20T02:13:49;1.10;;;1.00;;
22314;SDS011;11325;55.686;37.566;2023-12-20T02:16:18;1.47;;;1.17;;
22314;SDS011;11325;55.686;37.566;2023-12-20T02:18:47;2.22;;;1.17;;
22314;SDS011;11325;55.686;37.566;2023-12-20T02:21:17;1.95;;;1.20;;
22314;SDS011;11325;55.686;37.566;2023-12-20T02:23:46;5.33;;;1.37;;
22314;SDS011;11325;55.686;37.566;2023-12-20T02:26:15;0.88;;;0.88;;
22314;SDS011;11325;55.686;37.566;2023-12-20T02:28:46;1.27;;;1.00;;
22314;SDS011;11325;55.686;37.566;2023-12-20T02:31:14;1.77;;;1.15;;
22314;SDS011;11325;55.686;37.566;2023-12-20T02:33:43;1.27;;;0.90;;
22314;SDS011;11325;55.686;37.566;2023-12-20T02:36:12;3.08;;;1.07;;
22314;SDS011;11325;55.686;37.566;2023-12-20T02:38:41;1.22;;;0.90;;
22314;SDS011;11325;55.686;37.566;2023-12-20T02:41:10;1.12;;;0.93;;
22314;SDS011;11325;55.686;37.566;2023-12-20T02:43:38;1.30;;;1.15;;
22314;SDS011;11325;55.686;37.566;2023-12-20T02:46:07;1.87;;;0.90;;
22314;SDS011;11325;55.686;37.566;2023-12-20T02:48:36;3.77;;;1.35;;
22314;SDS011;11325;55.686;37.566;2023-12-20T02:51:05;3.75;;;1.20;;
22314;SDS011;11325;55.686;37.566;2023-12-20T02:53:33;1.98;;;1.50;;
22314;SDS011;11325;55.686;37.566;2023-12-20T02:56:02;2.17;;;1.02;;
22314;SDS011;11325;55.686;37.566;2023-12-20T02:58:31;3.35;;;1.70;;
22314;SDS011;11325;55.686;37.566;2023-12-20T03:00:59;4.22;;;1.85;;
22314;SDS011;11325;55.686;37.566;2023-12-20T03:03:28;1.70;;;1.52;;
22314;SDS011;11325;55.686;37.566;2023-12-20T03:05:56;2.33;;;1.82;;
22314;SDS011;11325;55.686;37.566;2023-12-20T03:08:25;4.53;;;2.02;;
22314;SDS011;11325;55.686;37.566;2023-12-20T03:10:54;3.37;;;2.20;;
22314;SDS011;11325;55.686;37.566;2023-12-20T03:13:22;3.90;;;1.85;;
22314;SDS011;11325;55.686;37.566;2023-12-20T03:15:51;4.10;;;2.37;;
22314;SDS011;11325;55.686;37.566;2023-12-20T03:18:20;3.62;;;2.15;;
22314;SDS011;11325;55.686;37.566;2023-12-20T03:20:49;2.67;;;1.98;;
22314;SDS011;11325;55.686;37.566;2023-12-20T03:23:18;2.58;;;1.92;;
22314;SDS011;11325;55.686;37.566;2023-12-20T03:25:47;5.37;;;1.82;;
22314;SDS011;11325;55.686;37.566;2023-12-20T03:28:16;3.35;;;2.00;;
22314;SDS011;11325;55.686;37.566;2023-12-20T03:30:44;3.50;;;1.90;;
22314;SDS011;11325;55.686;37.566;2023-12-20T03:33:13;2.67;;;2.12;;
22314;SDS011;11325;55.686;37.566;2023-12-20T03:35:41;1.92;;;1.62;;
22314;SDS011;11325;55.686;37.566;2023-12-20T03:38:10;2.60;;;1.92;;
22314;SDS011;11325;55.686;37.566;2023-12-20T03:40:38;2.90;;;2.12;;
22314;SDS011;11325;55.686;37.566;2023-12-20T03:43:07;2.60;;;2.30;;
22314;SDS011;11325;55.686;37.566;2023-12-20T03:45:36;3.65;;;2.45;;
22314;SDS011;11325;55.686;37.566;2023-12-20T03:48:05;6.35;;;2.47;;
22314;SDS011;11325;55.686;37.566;2023-12-20T03:50:33;3.25;;;2.62;;
22314;SDS011;11325;55.686;37.566;2023-12-20T03:53:02;3.25;;;1.92;;
22314;SDS011;11325;55.686;37.566;2023-12-20T03:55:31;3.70;;;2.58;;
22314;SDS011;11325;55.686;37.566;2023-12-20T03:58:00;4.10;;;2.62;;
22314;SDS011;11325;55.686;37.566;2023-12-20T04:00:29;3.20;;;2.72;;
22314;SDS011;11325;55.686;37.566;2023-12-20T04:02:58;5.78;;;2.67;;
22314;SDS011;11325;55.686;37.566;2023-12-20T04:05:26;7.58;;;2.92;;
22314;SDS011;11325;55.686;37.566;2023-12-20T04:07:55;4.75;;;2.80;;
22314;SDS011;11325;55.686;37.566;2023-12-20T04:10:24;5.58;;;2.67;;
22314;SDS011;11325;55.686;37.566;2023-12-20T04:12:53;9.65;;;2.90;;
22314;SDS011;11325;55.686;37.566;2023-12-20T04:15:22;3.92;;;2.87;;
22314;SDS011;11325;55.686;37.566;2023-12-20T04:17:51;2.92;;;2.20;;
22314;SDS011;11325;55.686;37.566;2023-12-20T04:20:20;4.72;;;2.80;;
22314;SDS011;11325;55.686;37.566;2023-12-20T04:22:49;4.62;;;2.87;;
22314;SDS011;11325;55.686;37.566;2023-12-20T04:25:17;3.17;;;2.50;;
22314;SDS011;11325;55.686;37.566;2023-12-20T04:27:46;4.33;;;2.80;;
22314;SDS011;11325;55.686;37.566;2023-12-20T04:30:14;5.70;;;2.77;;
22314;SDS011;11325;55.686;37.566;2023-12-20T04:32:43;4.35;;;2.90;;
22314;SDS011;11325;55.686;37.566;2023-12-20T04:35:12;7.08;;;2.80;;
22314;SDS011;11325;55.686;37.566;2023-12-20T04:37:40;6.40;;;3.22;;
22314;SDS011;11325;55.686;37.566;2023-12-20T04:40:09;3.90;;;2.77;;
22314;SDS011;11325;55.686;37.566;2023-12-20T04:42:39;5.53;;;3.62;;
22314;SDS011;11325;55.686;37.566;2023-12-20T04:45:08;4.08;;;3.10;;
22314;SDS011;11325;55.686;37.566;2023-12-20T04:47:36;4.83;;;3.00;;
22314;SDS011;11325;55.686;37.566;2023-12-20T04:50:06;6.12;;;2.75;;
22314;SDS011;11325;55.686;37.566;2023-12-20T04:52:34;3.90;;;2.70;;
22314;SDS011;11325;55.686;37.566;2023-12-20T04:55:03;3.12;;;2.35;;
22314;SDS011;11325;55.686;37.566;2023-12-20T04:57:32;5.60;;;2.52;;
22314;SDS011;11325;55.686;37.566;2023-12-20T05:00:01;6.60;;;2.80;;
22314;SDS011;11325;55.686;37.566;2023-12-20T05:02:31;7.80;;;2.37;;
22314;SDS011;11325;55.686;37.566;2023-12-20T05:05:00;8.45;;;2.62;;
22314;SDS011;11325;55.686;37.566;2023-12-20T05:07:30;2.42;;;1.98;;
22314;SDS011;11325;55.686;37.566;2023-12-20T05:09:59;4.67;;;2.22;;
22314;SDS011;11325;55.686;37.566;2023-12-20T05:12:29;2.95;;;2.25;;
22314;SDS011;11325;55.686;37.566;2023-12-20T05:14:58;2.98;;;1.57;;
22314;SDS011;11325;55.686;37.566;2023-12-20T05:17:30;2.95;;;2.10;;
22314;SDS011;11325;55.686;37.566;2023-12-20T05:19:59;2.15;;;1.95;;
22314;SDS011;11325;55.686;37.566;2023-12-20T05:22:29;5.15;;;1.98;;
22314;SDS011;11325;55.686;37.566;2023-12-20T05:24:58;4.37;;;2.00;;
22314;SDS011;11325;55.686;37.566;2023-12-20T05:27:26;2.98;;;1.80;;
22314;SDS011;11325;55.686;37.566;2023-12-20T05:29:55;6.20;;;2.20;;
22314;SDS011;11325;55.686;37.566;2023-12-20T05:32:25;2.02;;;1.82;;
22314;SDS011;11325;55.686;37.566;2023-12-20T05:34:54;3.95;;;2.55;;
22314;SDS011;11325;55.686;37.566;2023-12-20T05:37:23;2.50;;;2.25;;
22314;SDS011;11325;55.686;37.566;2023-12-20T05:39:52;2.25;;;1.90;;
22314;SDS011;11325;55.686;37.566;2023-12-20T05:42:21;8.88;;;2.80;;
22314;SDS011;11325;55.686;37.566;2023-12-20T05:44:50;3.72;;;2.37;;
22314;SDS011;11325;55.686;37.566;2023-12-20T05:47:18;3.58;;;2.40;;
22314;SDS011;11325;55.686;37.566;2023-12-20T05:49:47;5.28;;;2.67;;
22314;SDS011;11325;55.686;37.566;2023-12-20T05:52:15;4.53;;;2.85;;
22314;SDS011;11325;55.686;37.566;2023-12-20T05:54:44;6.20;;;2.77;;
22314;SDS011;11325;55.686;37.566;2023-12-20T05:57:12;3.15;;;2.52;;
22314;SDS011;11325;55.686;37.566;2023-12-20T05:59:41;5.37;;;2.83;;
22314;SDS011;11325;55.686;37.566;2023-12-20T06:02:10;3.87;;;2.98;;
22314;SDS011;11325;55.686;37.566;2023-12-20T06:04:41;3.65;;;2.62;;
22314;SDS011;11325;55.686;37.566;2023-12-20T06:07:08;8.25;;;2.92;;
22314;SDS011;11325;55.686;37.566;2023-12-20T06:09:37;5.22;;;2.58;;
22314;SDS011;11325;55.686;37.566;2023-12-20T06:12:06;4.37;;;2.67;;
22314;SDS011;11325;55.686;37.566;2023-12-20T06:14:36;6.72;;;2.83;;
22314;SDS011;11325;55.686;37.566;2023-12-20T06:17:05;6.83;;;2.95;;
22314;SDS011;11325;55.686;37.566;2023-12-20T06:19:33;5.10;;;2.83;;
22314;SDS011;11325;55.686;37.566;2023-12-20T06:22:02;4.28;;;2.60;;
22314;SDS011;11325;55.686;37.566;2023-12-20T06:24:30;2.98;;;2.55;;
22314;SDS011;11325;55.686;37.566;2023-12-20T06:27:01;3.83;;;2.10;;
22314;SDS011;11325;55.686;37.566;2023-12-20T06:29:30;8.10;;;2.40;;
22314;SDS011;11325;55.686;37.566;2023-12-20T06:31:59;7.08;;;2.52;;
22314;SDS011;11325;55.686;37.566;2023-12-20T06:34:28;3.75;;;2.25;;
22314;SDS011;11325;55.686;37.566;2023-12-20T06:36:56;5.22;;;2.87;;
22314;SDS011;11325;55.686;37.566;2023-12-20T06:39:25;2.65;;;2.20;;
22314;SDS011;11325;55.686;37.566;2023-12-20T06:41:54;4.78;;;2.35;;
22314;SDS011;11325;55.686;37.566;2023-12-20T06:44:22;6.47;;;2.72;;
22314;SDS011;11325;55.686;37.566;2023-12-20T06:46:54;4.78;;;2.42;;
22314;SDS011;11325;55.686;37.566;2023-12-20T06:49:31;5.15;;;2.33;;
22314;SDS011;11325;55.686;37.566;2023-12-20T06:52:08;4.97;;;2.17;;
22314;SDS011;11325;55.686;37.566;2023-12-20T06:54:36;3.05;;;2.27;;
22314;SDS011;11325;55.686;37.566;2023-12-20T06:57:05;3.08;;;2.35;;
22314;SDS011;11325;55.686;37.566;2023-12-20T06:59:37;3.15;;;2.45;;
22314;SDS011;11325;55.686;37.566;2023-12-20T07:02:03;7.00;;;2.92;;
22314;SDS011;11325;55.686;37.566;2023-12-20T07:04:32;4.00;;;2.50;;
22314;SDS011;11325;55.686;37.566;2023-12-20T07:07:01;4.22;;;2.35;;
22314;SDS011;11325;55.686;37.566;2023-12-20T07:09:29;3.15;;;2.05;;
22314;SDS011;11325;55.686;37.566;2023-12-20T07:11:58;3.33;;;2.10;;
22314;SDS011;11325;55.686;37.566;2023-12-20T07:14:26;4.67;;;2.17;;
22314;SDS011;11325;55.686;37.566;2023-12-20T07:16:56;3.47;;;2.12;;
22314;SDS011;11325;55.686;37.566;2023-12-20T07:19:24;4.78;;;2.47;;
22314;SDS011;11325;55.686;37.566;2023-12-20T07:21:53;4.92;;;2.30;;
22314;SDS011;11325;55.686;37.566;2023-12-20T07:24:22;5.80;;;2.30;;
22314;SDS011;11325;55.686;37.566;2023-12-20T07:26:50;3.22;;;2.00;;
22314;SDS011;11325;55.686;37.566;2023-12-20T07:29:19;5.95;;;2.92;;
22314;SDS011;11325;55.686;37.566;2023-12-20T07:31:48;3.55;;;2.02;;
22314;SDS011;11325;55.686;37.566;2023-12-20T07:34:16;3.02;;;1.95;;
22314;SDS011;11325;55.686;37.566;2023-12-20T07:36:45;4.53;;;1.80;;
22314;SDS011;11325;55.686;37.566;2023-12-20T07:39:14;2.20;;;1.90;;
22314;SDS011;11325;55.686;37.566;2023-12-20T07:41:43;4.12;;;2.40;;
22314;SDS011;11325;55.686;37.566;2023-12-20T07:44:11;5.62;;;2.30;;
22314;SDS011;11325;55.686;37.566;2023-12-20T07:46:40;2.45;;;1.72;;
22314;SDS011;11325;55.686;37.566;2023-12-20T07:49:08;3.25;;;2.02;;
22314;SDS011;11325;55.686;37.566;2023-12-20T07:51:38;3.50;;;1.70;;
22314;SDS011;11325;55.686;37.566;2023-12-20T07:54:07;1.95;;;1.70;;
22314;SDS011;11325;55.686;37.566;2023-12-20T07:56:35;2.42;;;1.90;;
22314;SDS011;11325;55.686;37.566;2023-12-20T07:59:04;2.22;;;1.90;;
22314;SDS011;11325;55.686;37.566;2023-12-20T08:01:33;2.45;;;1.70;;
22314;SDS011;11325;55.686;37.566;2023-12-20T08:04:01;7.05;;;1.85;;
22314;SDS011;11325;55.686;37.566;2023-12-20T08:06:30;4.55;;;2.00;;
22314;SDS011;11325;55.686;37.566;2023-12-20T08:08:58;4.22;;;2.10;;
22314;SDS011;11325;55.686;37.566;2023-12-20T08:11:28;6.78;;;1.77;;
22314;SDS011;11325;55.686;37.566;2023-12-20T08:13:57;2.92;;;1.90;;
22314;SDS011;11325;55.686;37.566;2023-12-20T08:16:25;4.12;;;1.75;;
22314;SDS011;11325;55.686;37.566;2023-12-20T08:18:54;2.77;;;1.57;;
22314;SDS011;11325;55.686;37.566;2023-12-20T08:21:22;2.58;;;2.08;;
22314;SDS011;11325;55.686;37.566;2023-12-20T08:23:51;2.37;;;1.82;;
22314;SDS011;11325;55.686;37.566;2023-12-20T08:26:19;2.02;;;1.62;;
22314;SDS011;11325;55.686;37.566;2023-12-20T08:28:50;2.77;;;2.00;;
22314;SDS011;11325;55.686;37.566;2023-12-20T08:31:19;4.50;;;1.90;;
22314;SDS011;11325;55.686;37.566;2023-12-20T08:33:48;2.67;;;2.05;;
22314;SDS011;11325;55.686;37.566;2023-12-20T08:36:17;3.33;;;2.05;;
22314;SDS011;11325;55.686;37.566;2023-12-20T08:38:46;5.53;;;1.98;;
22314;SDS011;11325;55.686;37.566;2023-12-20T08:41:15;5.25;;;2.30;;
22314;SDS011;11325;55.686;37.566;2023-12-20T08:43:44;3.62;;;2.15;;
22314;SDS011;11325;55.686;37.566;2023-12-20T08:46:14;3.62;;;2.42;;
22314;SDS011;11325;55.686;37.566;2023-12-20T08:48:43;3.65;;;2.00;;
22314;SDS011;11325;55.686;37.566;2023-12-20T08:51:12;3.87;;;1.87;;
22314;SDS011;11325;55.686;37.566;2023-12-20T08:53:41;4.42;;;2.45;;
22314;SDS011;11325;55.686;37.566;2023-12-20T08:56:11;3.65;;;2.08;;
22314;SDS011;11325;55.686;37.566;2023-12-20T08:58:40;2.58;;;2.22;;
22314;SDS011;11325;55.686;37.566;2023-12-20T09:01:08;3.02;;;2.12;;
22314;SDS011;11325;55.686;37.566;2023-12-20T09:03:37;2.33;;;1.82;;
22314;SDS011;11325;55.686;37.566;2023-12-20T09:06:05;3.45;;;2.05;;
22314;SDS011;11325;55.686;37.566;2023-12-20T09:08:34;3.75;;;2.35;;
22314;SDS011;11325;55.686;37.566;2023-12-20T09:11:03;3.90;;;2.20;;
22314;SDS011;11325;55.686;37.566;2023-12-20T09:13:31;2.42;;;1.95;;
22314;SDS011;11325;55.686;37.566;2023-12-20T09:16:00;2.70;;;2.08;;
22314;SDS011;11325;55.686;37.566;2023-12-20T09:18:28;2.90;;;2.22;;
22314;SDS011;11325;55.686;37.566;2023-12-20T09:20:57;4.40;;;2.15;;
22314;SDS011;11325;55.686;37.566;2023-12-20T09:23:26;3.98;;;2.30;;
22314;SDS011;11325;55.686;37.566;2023-12-20T09:25:54;6.22;;;3.12;;
22314;SDS011;11325;55.686;37.566;2023-12-20T09:28:23;4.90;;;3.37;;
22314;SDS011;11325;55.686;37.566;2023-12-20T09:30:51;5.12;;;3.33;;
22314;SDS011;11325;55.686;37.566;2023-12-20T09:33:20;7.67;;;3.55;;
22314;SDS011;11325;55.686;37.566;2023-12-20T09:35:48;7.28;;;2.87;;
22314;SDS011;11325;55.686;37.566;2023-12-20T09:38:17;4.72;;;2.72;;
22314;SDS011;11325;55.686;37.566;2023-12-20T09:40:45;3.42;;;2.62;;
22314;SDS011;11325;55.686;37.566;2023-12-20T09:43:14;3.02;;;2.27;;
22314;SDS011;11325;55.686;37.566;2023-12-20T09:45:46;4.97;;;2.30;;
22314;SDS011;11325;55.686;37.566;2023-12-20T09:48:17;3.75;;;2.45;;
22314;SDS011;11325;55.686;37.566;2023-12-20T09:50:45;3.00;;;2.12;;
22314;SDS011;11325;55.686;37.566;2023-12-20T09:53:15;4.53;;;2.10;;
22314;SDS011;11325;55.686;37.566;2023-12-20T09:55:44;3.17;;;2.22;;
22314;SDS011;11325;55.686;37.566;2023-12-20T09:58:13;4.20;;;2.40;;
22314;SDS011;11325;55.686;37.566;2023-12-20T10:00:42;3.40;;;2.17;;
22314;SDS011;11325;55.686;37.566;2023-12-20T10:03:10;4.47;;;2.20;;
22314;SDS011;11325;55.686;37.566;2023-12-20T10:05:40;5.95;;;2.10;;
22314;SDS011;11325;55.686;37.566;2023-12-20T10:08:09;2.10;;;1.70;;
22314;SDS011;11325;55.686;37.566;2023-12-20T10:10:38;3.90;;;2.02;;
22314;SDS011;11325;55.686;37.566;2023-12-20T10:13:10;8.40;;;2.02;;
22314;SDS011;11325;55.686;37.566;2023-12-20T10:15:39;3.22;;;2.22;;
22314;SDS011;11325;55.686;37.566;2023-12-20T10:18:08;2.37;;;1.62;;
22314;SDS011;11325;55.686;37.566;2023-12-20T10:20:38;2.65;;;1.67;;
22314;SDS011;11325;55.686;37.566;2023-12-20T10:23:07;4.58;;;2.02;;
22314;SDS011;11325;55.686;37.566;2023-12-20T10:25:37;4.15;;;2.37;;
22314;SDS011;11325;55.686;37.566;2023-12-20T10:28:14;2.42;;;1.90;;
22314;SDS011;11325;55.686;37.566;2023-12-20T10:30:38;3.80;;;2.22;;
22314;SDS011;11325;55.686;37.566;2023-12-20T10:33:07;5.67;;;1.67;;
22314;SDS011;11325;55.686;37.566;2023-12-20T10:35:36;1.70;;;1.52;;
22314;SDS011;11325;55.686;37.566;2023-12-20T10:38:05;2.30;;;2.10;;
22314;SDS011;11325;55.686;37.566;2023-12-20T10:40:35;3.10;;;2.02;;
22314;SDS011;11325;55.686;37.566;2023-12-20T10:43:05;5.55;;;1.85;;
22314;SDS011;11325;55.686;37.566;2023-12-20T10:45:33;2.72;;;1.77;;
22314;SDS011;11325;55.686;37.566;2023-12-20T10:48:02;1.87;;;1.60;;
22314;SDS011;11325;55.686;37.566;2023-12-20T10:50:31;1.77;;;1.47;;
22314;SDS011;11325;55.686;37.566;2023-12-20T10:53:00;2.35;;;1.52;;
22314;SDS011;11325;55.686;37.566;2023-12-20T10:55:28;2.17;;;1.65;;
22314;SDS011;11325;55.686;37.566;2023-12-20T10:58:00;1.70;;;1.60;;
22314;SDS011;11325;55.686;37.566;2023-12-20T11:00:29;2.55;;;1.87;;
22314;SDS011;11325;55.686;37.566;2023-12-20T11:03:00;4.42;;;1.60;;
22314;SDS011;11325;55.686;37.566;2023-12-20T11:05:36;2.08;;;1.67;;
22314;SDS011;11325;55.686;37.566;2023-12-20T11:08:06;1.85;;;1.62;;
22314;SDS011;11325;55.686;37.566;2023-12-20T11:10:38;1.80;;;1.57;;
22314;SDS011;11325;55.686;37.566;2023-12-20T11:13:15;1.82;;;1.70;;
22314;SDS011;11325;55.686;37.566;2023-12-20T11:15:38;6.65;;;1.92;;
22314;SDS011;11325;55.686;37.566;2023-12-20T11:18:07;2.85;;;1.50;;
22314;SDS011;11325;55.686;37.566;2023-12-20T11:20:41;4.15;;;1.47;;
22314;SDS011;11325;55.686;37.566;2023-12-20T11:23:06;2.10;;;1.72;;
22314;SDS011;11325;55.686;37.566;2023-12-20T11:25:48;1.75;;;1.57;;
22314;SDS011;11325;55.686;37.566;2023-12-20T11:28:16;2.00;;;1.72;;
22314;SDS011;11325;55.686;37.566;2023-12-20T11:30:51;1.60;;;1.50;;
22314;SDS011;11325;55.686;37.566;2023-12-20T11:33:17;5.03;;;2.33;;
22314;SDS011;11325;55.686;37.566;2023-12-20T11:35:47;4.20;;;1.60;;
22314;SDS011;11325;55.686;37.566;2023-12-20T11:38:16;1.98;;;1.70;;
22314;SDS011;11325;55.686;37.566;2023-12-20T11:40:44;3.83;;;2.35;;
22314;SDS011;11325;55.686;37.566;2023-12-20T11:43:13;3.58;;;1.85;;
22314;SDS011;11325;55.686;37.566;2023-12-20T11:45:48;2.37;;;1.57;;
22314;SDS011;11325;55.686;37.566;2023-12-20T11:48:13;1.55;;;1.40;;
22314;SDS011;11325;55.686;37.566;2023-12-20T11:50:42;2.75;;;1.80;;
22314;SDS011;11325;55.686;37.566;2023-12-20T11:53:10;2.17;;;1.72;;
22314;SDS011;11325;55.686;37.566;2023-12-20T11:55:39;2.05;;;1.55;;
22314;SDS011;11325;55.686;37.566;2023-12-20T11:58:08;3.55;;;1.70;;
22314;SDS011;11325;55.686;37.566;2023-12-20T12:00:37;3.02;;;1.87;;
22314;SDS011;11325;55.686;37.566;2023-12-20T12:03:05;2.58;;;1.87;;
22314;SDS011;11325;55.686;37.566;2023-12-20T12:05:34;2.90;;;1.90;;
22314;SDS011;11325;55.686;37.566;2023-12-20T12:08:03;2.10;;;1.75;;
22314;SDS011;11325;55.686;37.566;2023-12-20T12:10:32;2.80;;;1.50;;
22314;SDS011;11325;55.686;37.566;2023-12-20T12:13:00;2.40;;;1.75;;
22314;SDS011;11325;55.686;37.566;2023-12-20T12:15:29;2.45;;;2.05;;
22314;SDS011;11325;55.686;37.566;2023-12-20T12:17:57;1.62;;;1.42;;
22314;SDS011;11325;55.686;37.566;2023-12-20T12:20:26;2.58;;;1.75;;
22314;SDS011;11325;55.686;37.566;2023-12-20T12:23:03;6.45;;;1.60;;
22314;SDS011;11325;55.686;37.566;2023-12-20T12:25:34;2.05;;;1.40;;
22314;SDS011;11325;55.686;37.566;2023-12-20T12:27:58;2.87;;;1.85;;
22314;SDS011;11325;55.686;37.566;2023-12-20T12:30:27;2.10;;;1.65;;
22314;SDS011;11325;55.686;37.566;2023-12-20T12:32:56;5.45;;;1.70;;
22314;SDS011;11325;55.686;37.566;2023-12-20T12:35:25;2.37;;;1.92;;
22314;SDS011;11325;55.686;37.566;2023-12-20T12:37:53;2.15;;;1.90;;
22314;SDS011;11325;55.686;37.566;2023-12-20T12:40:22;1.50;;;1.40;;
22314;SDS011;11325;55.686;37.566;2023-12-20T12:42:50;1.75;;;1.42;;
22314;SDS011;11325;55.686;37.566;2023-12-20T12:45:19;2.50;;;1.70;;
22314;SDS011;11325;55.686;37.566;2023-12-20T12:47:47;2.85;;;1.92;;
22314;SDS011;11325;55.686;37.566;2023-12-20T12:50:16;2.33;;;1.47;;
22314;SDS011;11325;55.686;37.566;2023-12-20T12:52:45;2.37;;;1.60;;
22314;SDS011;11325;55.686;37.566;2023-12-20T12:55:13;4.35;;;1.82;;
22314;SDS011;11325;55.686;37.566;2023-12-20T12:57:42;3.15;;;1.60;;
22314;SDS011;11325;55.686;37.566;2023-12-20T13:00:11;3.12;;;1.50;;
22314;SDS011;11325;55.686;37.566;2023-12-20T13:02:39;2.58;;;1.80;;
22314;SDS011;11325;55.686;37.566;2023-12-20T13:05:11;1.82;;;1.65;;
22314;SDS011;11325;55.686;37.566;2023-12-20T13:07:40;1.57;;;1.47;;
22314;SDS011;11325;55.686;37.566;2023-12-20T13:10:16;2.25;;;1.45;;
22314;SDS011;11325;55.686;37.566;2023-12-20T13:12:44;1.77;;;1.55;;
22314;SDS011;11325;55.686;37.566;2023-12-20T13:15:13;2.00;;;1.60;;
22314;SDS011;11325;55.686;37.566;2023-12-20T13:17:41;1.42;;;1.30;;
22314;SDS011;11325;55.686;37.566;2023-12-20T13:20:10;1.50;;;1.40;;
22314;SDS011;11325;55.686;37.566;2023-12-20T13:22:38;1.90;;;1.30;;
22314;SDS011;11325;55.686;37.566;2023-12-20T13:25:07;2.10;;;1.50;;
22314;SDS011;11325;55.686;37.566;2023-12-20T13:27:36;1.92;;;1.47;;
22314;SDS011;11325;55.686;37.566;2023-12-20T13:30:05;2.00;;;1.15;;
22314;SDS011;11325;55.686;37.566;2023-12-20T13:32:34;1.45;;;1.35;;
22314;SDS011;11325;55.686;37.566;2023-12-20T13:35:03;2.92;;;1.42;;
22314;SDS011;11325;55.686;37.566;2023-12-20T13:37:31;2.33;;;1.20;;
22314;SDS011;11325;55.686;37.566;2023-12-20T13:40:00;1.72;;;1.30;;
22314;SDS011;11325;55.686;37.566;2023-12-20T13:42:35;2.52;;;1.50;;
22314;SDS011;11325;55.686;37.566;2023-12-20T13:45:04;1.92;;;1.40;;
22314;SDS011;11325;55.686;37.566;2023-12-20T13:47:33;3.45;;;1.45;;
22314;SDS011;11325;55.686;37.566;2023-12-20T13:50:03;5.05;;;1.50;;
22314;SDS011;11325;55.686;37.566;2023-12-20T13:52:33;3.00;;;1.30;;
22314;SDS011;11325;55.686;37.566;2023-12-20T13:55:01;1.92;;;1.50;;
22314;SDS011;11325;55.686;37.566;2023-12-20T13:57:30;3.72;;;2.17;;
22314;SDS011;11325;55.686;37.566;2023-12-20T13:59:59;3.02;;;1.72;;
22314;SDS011;11325;55.686;37.566;2023-12-20T14:02:29;1.82;;;1.47;;
22314;SDS011;11325;55.686;37.566;2023-12-20T14:04:58;2.52;;;1.57;;
22314;SDS011;11325;55.686;37.566;2023-12-20T14:07:26;1.55;;;1.40;;
22314;SDS011;11325;55.686;37.566;2023-12-20T14:09:56;2.05;;;1.80;;
22314;SDS011;11325;55.686;37.566;2023-12-20T14:12:26;7.30;;;1.60;;
22314;SDS011;11325;55.686;37.566;2023-12-20T14:14:55;2.25;;;1.95;;
22314;SDS011;11325;55.686;37.566;2023-12-20T14:17:24;1.67;;;1.57;;
22314;SDS011;11325;55.686;37.566;2023-12-20T14:19:52;2.10;;;1.42;;
22314;SDS011;11325;55.686;37.566;2023-12-20T14:22:22;4.97;;;1.87;;
22314;SDS011;11325;55.686;37.566;2023-12-20T14:24:52;2.12;;;1.32;;
22314;SDS011;11325;55.686;37.566;2023-12-20T14:27:21;1.60;;;1.40;;
22314;SDS011;11325;55.686;37.566;2023-12-20T14:29:51;4.03;;;2.15;;
22314;SDS011;11325;55.686;37.566;2023-12-20T14:32:20;1.95;;;1.40;;
22314;SDS011;11325;55.686;37.566;2023-12-20T14:34:49;4.50;;;2.15;;
22314;SDS011;11325;55.686;37.566;2023-12-20T14:37:17;2.90;;;1.67;;
22314;SDS011;11325;55.686;37.566;2023-12-20T14:39:46;2.75;;;1.70;;
22314;SDS011;11325;55.686;37.566;2023-12-20T14:42:14;2.33;;;1.52;;
22314;SDS011;11325;55.686;37.566;2023-12-20T14:44:43;3.00;;;1.70;;